createdAt,value
2019-01-23T00:00:34.236Z,46.50
2019-01-23T00:03:02.840Z,44.85
2019-01-23T00:05:31.388Z,45.92
2019-01-23T00:07:59.978Z,48.00
2019-01-23T00:10:28.635Z,48.92
2019-01-23T00:12:57.344Z,48.42
2019-01-23T00:15:25.839Z,45.30
2019-01-23T00:17:54.284Z,44.40
2019-01-23T00:20:22.793Z,53.38
2019-01-23T00:22:51.418Z,47.85
2019-01-23T00:25:20.217Z,45.12
2019-01-23T00:27:49.916Z,53.13
2019-01-23T00:30:18.484Z,47.98
2019-01-23T00:32:46.883Z,49.45
2019-01-23T00:35:15.474Z,48.30
2019-01-23T00:37:45.910Z,45.73
2019-01-23T00:40:15.010Z,49.20
2019-01-23T00:42:43.950Z,46.98
2019-01-23T00:45:14.449Z,50.48
2019-01-23T00:47:43.220Z,49.45
2019-01-23T00:50:13.331Z,51.63
2019-01-23T00:52:42.358Z,52.23
2019-01-23T00:55:12.970Z,52.67
2019-01-23T00:57:41.898Z,48.35
2019-01-23T01:00:16.897Z,51.37
2019-01-23T01:02:45.413Z,54.27
2019-01-23T01:05:15.125Z,45.23
2019-01-23T01:07:43.602Z,46.80
2019-01-23T01:10:13.580Z,54.75
2019-01-23T01:12:42.050Z,48.00
2019-01-23T01:15:13.473Z,46.55
2019-01-23T01:17:42.036Z,47.38
2019-01-23T01:20:12.247Z,50.75
2019-01-23T01:22:41.605Z,47.48
2019-01-23T01:25:13.658Z,52.65
2019-01-23T01:27:42.984Z,52.88
2019-01-23T01:30:17.512Z,50.48
2019-01-23T01:32:46.083Z,47.93
2019-01-23T01:35:14.426Z,46.28
2019-01-23T01:37:43.024Z,47.08
2019-01-23T01:40:13.262Z,55.52
2019-01-23T01:42:42.109Z,52.70
2019-01-23T01:45:13.506Z,49.33
2019-01-23T01:47:42.255Z,51.23
2019-01-23T01:50:17.761Z,48.68
2019-01-23T01:52:47.295Z,50.12
2019-01-23T01:55:16.148Z,49.20
2019-01-23T01:57:45.030Z,49.03
2019-01-23T02:00:19.635Z,53.85
2019-01-23T02:02:48.273Z,52.48
2019-01-23T02:05:17.485Z,51.40
2019-01-23T02:07:46.161Z,56.80
2019-01-23T02:10:19.405Z,50.88
2019-01-23T02:12:48.362Z,44.23
2019-01-23T02:15:18.290Z,51.68
2019-01-23T02:17:46.838Z,51.98
2019-01-23T02:20:26.812Z,51.48
2019-01-23T02:22:55.550Z,50.23
2019-01-23T02:25:25.750Z,54.88
2019-01-23T02:27:54.462Z,51.48
2019-01-23T02:30:24.752Z,48.80
2019-01-23T02:32:53.343Z,53.68
2019-01-23T02:35:21.898Z,48.38
2019-01-23T02:37:50.798Z,52.98
2019-01-23T02:40:22.103Z,50.92
2019-01-23T02:42:50.931Z,47.33
2019-01-23T02:45:20.688Z,48.87
2019-01-23T02:47:49.790Z,51.25
2019-01-23T02:50:18.627Z,51.15
2019-01-23T02:52:47.194Z,54.00
2019-01-23T02:55:15.810Z,55.78
2019-01-23T02:57:44.196Z,55.00
2019-01-23T03:00:16.391Z,54.27
2019-01-23T03:02:45.673Z,52.40
2019-01-23T03:05:17.250Z,46.60
2019-01-23T03:07:46.227Z,52.98
2019-01-23T03:10:17.850Z,49.25
2019-01-23T03:12:47.284Z,57.53
2019-01-23T03:15:17.152Z,52.85
2019-01-23T03:17:45.813Z,52.75
2019-01-23T03:20:16.821Z,51.50
2019-01-23T03:22:46.222Z,50.85
2019-01-23T03:25:16.356Z,53.30
2019-01-23T03:27:45.008Z,52.08
2019-01-23T03:30:21.948Z,47.03
2019-01-23T03:32:50.899Z,57.20
2019-01-23T03:35:19.555Z,50.10
2019-01-23T03:37:48.402Z,54.63
2019-01-23T03:40:19.594Z,55.92
2019-01-23T03:42:48.156Z,47.80
2019-01-23T03:45:17.211Z,54.35
2019-01-23T03:47:46.093Z,54.58
2019-01-23T03:50:16.886Z,49.77
2019-01-23T03:52:45.545Z,42.75
2019-01-23T03:55:15.437Z,47.78
2019-01-23T03:57:44.173Z,53.70
2019-01-23T04:00:16.447Z,52.43
2019-01-23T04:02:45.360Z,52.40
2019-01-23T04:05:13.906Z,48.55
2019-01-23T04:07:42.460Z,45.78
2019-01-23T04:10:13.410Z,51.20
2019-01-23T04:12:42.046Z,51.00
2019-01-23T04:15:12.377Z,52.70
2019-01-23T04:17:40.826Z,52.95
2019-01-23T04:20:13.458Z,59.25
2019-01-23T04:22:42.109Z,55.55
2019-01-23T04:25:11.227Z,59.05
2019-01-23T04:27:40.176Z,51.40
2019-01-23T04:30:13.659Z,52.40
2019-01-23T04:32:42.124Z,49.45
2019-01-23T04:35:10.782Z,49.83
2019-01-23T04:37:39.256Z,49.45
2019-01-23T04:40:08.712Z,57.62
2019-01-23T04:42:37.292Z,57.58
2019-01-23T04:45:14.890Z,54.50
2019-01-23T04:47:43.509Z,51.35
2019-01-23T04:50:14.471Z,51.45
2019-01-23T04:52:47.920Z,58.58
2019-01-23T04:55:16.653Z,57.80
2019-01-23T04:57:45.173Z,56.20
2019-01-23T05:00:16.672Z,54.40
2019-01-23T05:02:45.135Z,50.50
2019-01-23T05:05:14.540Z,52.00
2019-01-23T05:07:42.985Z,54.95
2019-01-23T05:10:11.641Z,52.48
2019-01-23T05:12:40.249Z,56.63
2019-01-23T05:15:09.428Z,51.35
2019-01-23T05:17:38.386Z,52.73
2019-01-23T05:20:07.877Z,55.78
2019-01-23T05:22:36.445Z,56.75
2019-01-23T05:25:05.849Z,54.67
2019-01-23T05:27:34.384Z,55.75
2019-01-23T05:30:03.784Z,54.33
2019-01-23T05:32:32.631Z,54.23
2019-01-23T05:35:01.304Z,50.15
2019-01-23T05:37:30.153Z,51.88
2019-01-23T05:39:58.683Z,53.38
2019-01-23T05:42:27.195Z,51.70
2019-01-23T05:44:55.820Z,55.00
2019-01-23T05:47:24.577Z,59.50
2019-01-23T05:49:53.512Z,58.83
2019-01-23T05:52:22.126Z,56.35
2019-01-23T05:54:50.706Z,52.08
2019-01-23T05:57:19.525Z,55.65
2019-01-23T05:59:48.129Z,59.15
2019-01-23T06:02:16.778Z,56.48
2019-01-23T06:04:45.379Z,55.60
2019-01-23T06:07:13.845Z,57.78
2019-01-23T06:09:42.357Z,54.75
2019-01-23T06:12:10.891Z,56.75
2019-01-23T06:14:41.183Z,59.48
2019-01-23T06:17:09.760Z,55.55
2019-01-23T06:19:38.279Z,56.05
2019-01-23T06:22:06.717Z,63.73
2019-01-23T06:24:35.266Z,62.75
2019-01-23T06:27:04.158Z,55.23
2019-01-23T06:29:32.806Z,60.03
2019-01-23T06:32:01.977Z,58.28
2019-01-23T06:34:31.281Z,57.65
2019-01-23T06:36:59.879Z,56.20
2019-01-23T06:39:29.696Z,59.15
2019-01-23T06:41:58.361Z,51.53
2019-01-23T06:44:26.932Z,64.82
2019-01-23T06:46:55.426Z,61.92
2019-01-23T06:49:24.373Z,63.78
2019-01-23T06:51:52.760Z,60.05
2019-01-23T06:54:21.339Z,64.90
2019-01-23T06:56:53.017Z,67.53
2019-01-23T06:59:21.484Z,66.50
2019-01-23T07:01:50.008Z,70.83
2019-01-23T07:04:19.213Z,71.57
2019-01-23T07:06:48.072Z,58.63
2019-01-23T07:09:16.669Z,75.95
2019-01-23T07:11:45.188Z,57.60
2019-01-23T07:14:13.858Z,56.13
2019-01-23T07:16:42.417Z,47.13
2019-01-23T07:19:11.200Z,54.83
2019-01-23T07:21:39.823Z,63.17
2019-01-23T07:24:08.369Z,68.17
2019-01-23T07:26:36.940Z,66.07
2019-01-23T07:29:05.553Z,64.20
2019-01-23T07:31:34.098Z,68.52
2019-01-23T07:34:03.091Z,61.42
2019-01-23T07:36:31.562Z,74.00
2019-01-23T07:39:00.191Z,64.53
2019-01-23T07:41:28.792Z,70.70
2019-01-23T07:43:57.265Z,65.17
2019-01-23T07:46:26.019Z,72.20
2019-01-23T07:48:54.446Z,96.45
2019-01-23T07:51:23.365Z,67.47
2019-01-23T07:53:52.047Z,72.97
2019-01-23T07:56:20.388Z,86.55
2019-01-23T07:58:48.822Z,72.47
2019-01-23T08:01:17.449Z,85.97
2019-01-23T08:03:46.018Z,64.37
2019-01-23T08:06:14.556Z,73.67
2019-01-23T08:08:43.148Z,79.97
2019-01-23T08:11:11.740Z,84.05
2019-01-23T08:13:40.358Z,81.10
2019-01-23T08:16:08.958Z,68.92
2019-01-23T08:18:37.354Z,72.67
2019-01-23T08:21:05.854Z,70.40
2019-01-23T08:23:34.363Z,74.20
2019-01-23T08:26:02.916Z,66.97
2019-01-23T08:28:31.459Z,65.52
2019-01-23T08:31:00.015Z,88.80
2019-01-23T08:33:28.726Z,66.47
2019-01-23T08:35:57.132Z,67.17
2019-01-23T08:38:25.721Z,65.08
2019-01-23T08:40:54.260Z,74.32
2019-01-23T08:43:23.144Z,74.95
2019-01-23T08:45:52.563Z,68.37
2019-01-23T08:48:21.553Z,76.77
2019-01-23T08:50:50.210Z,86.65
2019-01-23T08:53:18.702Z,58.35
2019-01-23T08:55:53.546Z,67.15
2019-01-23T08:58:17.795Z,75.17
2019-01-23T09:00:46.566Z,79.67
2019-01-23T09:03:15.614Z,64.58
2019-01-23T09:05:44.171Z,72.62
2019-01-23T09:08:13.188Z,75.37
2019-01-23T09:10:41.737Z,64.90
2019-01-23T09:13:10.153Z,70.83
2019-01-23T09:15:38.949Z,68.60
2019-01-23T09:18:07.526Z,60.03
2019-01-23T09:20:36.355Z,57.17
2019-01-23T09:23:05.028Z,62.17
2019-01-23T09:25:34.134Z,65.57
2019-01-23T09:28:02.750Z,60.20
2019-01-23T09:31:39.900Z,63.73
2019-01-23T09:34:49.973Z,63.73
2019-01-23T09:38:15.464Z,71.92
2019-01-23T09:41:01.586Z,58.80
2019-01-23T09:44:31.036Z,71.90
2019-01-23T09:47:37.388Z,63.17
2019-01-23T09:50:50.687Z,59.53
2019-01-23T09:53:38.311Z,61.58
2019-01-23T09:56:06.895Z,60.45
2019-01-23T09:58:35.292Z,58.45
2019-01-23T10:01:06.578Z,62.15
2019-01-23T10:03:35.661Z,61.37
2019-01-23T10:06:04.546Z,52.67
2019-01-23T10:08:32.958Z,57.65
2019-01-23T10:11:01.475Z,64.05
2019-01-23T10:13:29.833Z,55.40
2019-01-23T10:16:10.143Z,67.00
2019-01-23T10:18:39.118Z,55.55
2019-01-23T10:21:07.561Z,63.78
2019-01-23T10:23:36.513Z,62.83
2019-01-23T10:26:05.533Z,56.60
2019-01-23T10:28:34.002Z,60.63
2019-01-23T10:31:06.559Z,60.63
2019-01-23T10:33:33.345Z,61.18
2019-01-23T10:36:01.765Z,54.42
2019-01-23T10:38:30.529Z,57.45
2019-01-23T10:40:59.003Z,56.85
2019-01-23T10:43:27.671Z,59.85
2019-01-23T10:45:56.485Z,57.60
2019-01-23T10:48:25.519Z,55.90
2019-01-23T10:50:54.297Z,64.05
2019-01-23T10:53:22.656Z,61.00
2019-01-23T10:55:51.218Z,58.28
2019-01-23T10:58:19.912Z,67.17
2019-01-23T11:00:48.558Z,57.30
2019-01-23T11:03:16.984Z,62.67
2019-01-23T11:05:45.790Z,59.48
2019-01-23T11:08:14.403Z,61.63
2019-01-23T11:10:42.946Z,56.83
2019-01-23T11:13:12.377Z,60.52
2019-01-23T11:15:41.030Z,66.45
2019-01-23T11:18:09.767Z,63.48
2019-01-23T11:20:38.468Z,59.67
2019-01-23T11:23:07.140Z,54.90
2019-01-23T11:25:35.853Z,54.55
2019-01-23T11:28:04.890Z,61.13
2019-01-23T11:30:33.558Z,57.23
2019-01-23T11:33:02.142Z,53.15
2019-01-23T11:35:30.606Z,57.33
2019-01-23T11:37:59.227Z,59.55
2019-01-23T11:40:29.938Z,63.02
2019-01-23T11:42:58.654Z,60.78
2019-01-23T11:45:29.187Z,54.03
2019-01-23T11:47:57.824Z,54.03
2019-01-23T11:50:26.352Z,57.15
2019-01-23T11:52:54.893Z,60.28
2019-01-23T11:55:23.629Z,60.73
2019-01-23T11:57:52.345Z,60.65
2019-01-23T12:00:22.747Z,62.65
2019-01-23T12:02:51.282Z,56.33
2019-01-23T12:05:21.335Z,64.22
2019-01-23T12:07:50.518Z,57.93
2019-01-23T12:10:21.385Z,63.83
2019-01-23T12:12:50.314Z,58.30
2019-01-23T12:15:21.274Z,65.15
2019-01-23T12:17:50.017Z,57.20
2019-01-23T12:20:19.934Z,58.17
2019-01-23T12:22:48.516Z,58.02
2019-01-23T12:25:17.605Z,57.15
2019-01-23T12:27:46.167Z,61.28
2019-01-23T12:30:22.908Z,60.05
2019-01-23T12:32:52.120Z,59.40
2019-01-23T12:35:21.654Z,64.50
2019-01-23T12:37:50.206Z,58.42
2019-01-23T12:40:18.922Z,61.53
2019-01-23T12:42:47.659Z,57.23
2019-01-23T12:45:19.745Z,60.40
2019-01-23T12:47:48.757Z,63.40
2019-01-23T12:50:21.803Z,64.17
2019-01-23T12:52:50.758Z,54.13
2019-01-23T12:55:19.368Z,61.75
2019-01-23T12:57:47.934Z,64.47
2019-01-23T13:00:20.896Z,62.73
2019-01-23T13:02:49.339Z,55.35
2019-01-23T13:05:19.959Z,61.15
2019-01-23T13:07:48.647Z,55.70
2019-01-23T13:10:18.573Z,54.88
2019-01-23T13:12:48.212Z,61.37
2019-01-23T13:15:20.226Z,58.50
2019-01-23T13:17:49.097Z,58.35
2019-01-23T13:20:19.345Z,64.35
2019-01-23T13:22:47.707Z,59.25
2019-01-23T13:25:19.143Z,61.35
2019-01-23T13:27:48.268Z,61.95
2019-01-23T13:30:20.470Z,59.13
2019-01-23T13:32:49.241Z,60.10
2019-01-23T13:35:21.484Z,59.30
2019-01-23T13:37:49.912Z,68.02
2019-01-23T13:40:28.373Z,64.37
2019-01-23T13:42:57.040Z,63.52
2019-01-23T13:45:25.605Z,65.37
2019-01-23T13:47:54.535Z,61.90
2019-01-23T13:50:23.336Z,57.60
2019-01-23T13:52:51.686Z,58.70
2019-01-23T13:55:21.417Z,64.10
2019-01-23T13:57:49.933Z,69.00
2019-01-23T14:00:22.236Z,82.62
2019-01-23T14:02:51.226Z,131.07
2019-01-23T14:05:19.564Z,67.22
2019-01-23T14:07:48.042Z,79.30
2019-01-23T14:10:17.028Z,82.75
2019-01-23T14:12:45.595Z,60.03
2019-01-23T14:15:30.036Z,65.00
2019-01-23T14:17:58.608Z,61.25
2019-01-23T14:20:27.137Z,61.28
2019-01-23T14:22:55.853Z,78.40
2019-01-23T14:25:24.593Z,62.45
2019-01-23T14:27:53.067Z,62.43
2019-01-23T14:30:35.373Z,56.70
2019-01-23T14:33:04.198Z,59.38
2019-01-23T14:35:34.911Z,61.77
2019-01-23T14:38:04.258Z,58.75
2019-01-23T14:40:32.941Z,64.30
2019-01-23T14:43:02.219Z,69.80
2019-01-23T14:45:35.153Z,60.95
2019-01-23T14:48:04.803Z,62.38
2019-01-23T14:50:33.377Z,67.47
2019-01-23T14:53:02.901Z,57.40
2019-01-23T14:55:31.761Z,64.67
2019-01-23T14:58:00.346Z,62.17
2019-01-23T15:00:29.438Z,60.75
2019-01-23T15:02:57.950Z,76.67
2019-01-23T15:05:26.686Z,66.20
2019-01-23T15:07:55.236Z,66.40
2019-01-23T15:10:28.854Z,61.77
2019-01-23T15:12:57.590Z,63.92
2019-01-23T15:15:26.831Z,67.20
2019-01-23T15:17:55.554Z,59.80
2019-01-23T15:20:28.402Z,68.20
2019-01-23T15:22:57.065Z,59.40
2019-01-23T15:25:25.771Z,62.98
2019-01-23T15:27:54.366Z,65.52
2019-01-23T15:30:23.295Z,63.02
2019-01-23T15:32:52.339Z,69.00
2019-01-23T15:35:21.290Z,63.02
2019-01-23T15:37:49.956Z,62.40
2019-01-23T15:40:22.353Z,61.58
2019-01-23T15:42:51.302Z,58.65
2019-01-23T15:45:19.910Z,65.52
2019-01-23T15:47:48.351Z,65.78
2019-01-23T15:50:20.641Z,62.00
2019-01-23T15:52:49.228Z,69.82
2019-01-23T15:55:20.557Z,64.90
2019-01-23T15:57:49.132Z,68.35
2019-01-23T16:00:24.664Z,74.00
2019-01-23T16:02:53.555Z,63.60
2019-01-23T16:05:22.143Z,70.70
2019-01-23T16:07:50.798Z,66.67
2019-01-23T16:10:22.315Z,68.85
2019-01-23T16:12:51.091Z,66.10
2019-01-23T16:15:22.406Z,65.45
2019-01-23T16:17:51.150Z,90.10
2019-01-23T16:20:20.039Z,104.63
2019-01-23T16:22:48.656Z,79.07
2019-01-23T16:25:17.483Z,70.83
2019-01-23T16:27:46.141Z,65.35
2019-01-23T16:30:25.864Z,72.87
2019-01-23T16:32:54.457Z,68.95
2019-01-23T16:35:23.033Z,83.00
2019-01-23T16:37:52.116Z,70.40
2019-01-23T16:40:20.715Z,74.80
2019-01-23T16:42:49.648Z,73.50
2019-01-23T16:45:18.894Z,69.97
2019-01-23T16:47:47.562Z,64.42
2019-01-23T16:50:18.820Z,83.25
2019-01-23T16:52:47.435Z,73.20
2019-01-23T16:55:16.199Z,73.90
2019-01-23T16:57:45.693Z,73.92
2019-01-23T17:00:18.547Z,76.82
2019-01-23T17:02:47.539Z,75.83
2019-01-23T17:05:23.409Z,72.75
2019-01-23T17:07:52.380Z,95.67
2019-01-23T17:10:22.856Z,108.37
2019-01-23T17:12:52.548Z,118.10
2019-01-23T17:15:21.995Z,137.82
2019-01-23T17:17:50.881Z,85.05
2019-01-23T17:20:39.373Z,106.92
2019-01-23T17:23:07.992Z,75.57
2019-01-23T17:25:36.539Z,91.92
2019-01-23T17:28:07.296Z,90.22
2019-01-23T17:30:36.085Z,92.57
2019-01-23T17:33:04.937Z,96.95
2019-01-23T17:35:33.804Z,84.60
2019-01-23T17:38:02.595Z,86.12
2019-01-23T17:40:31.342Z,95.20
2019-01-23T17:42:59.970Z,91.28
2019-01-23T17:45:33.938Z,91.65
2019-01-23T17:48:03.397Z,89.45
2019-01-23T17:50:31.843Z,94.22
2019-01-23T17:53:00.608Z,94.87
2019-01-23T17:55:32.421Z,73.37
2019-01-23T17:58:00.895Z,111.10
2019-01-23T18:00:34.043Z,92.08
2019-01-23T18:03:02.799Z,105.43
2019-01-23T18:05:31.251Z,96.75
2019-01-23T18:07:59.796Z,92.85
2019-01-23T18:10:28.663Z,92.10
2019-01-23T18:12:57.201Z,110.88
2019-01-23T18:15:26.262Z,82.93
2019-01-23T18:17:55.543Z,82.62
2019-01-23T18:20:27.218Z,78.90
2019-01-23T18:22:56.304Z,74.87
2019-01-23T18:25:25.418Z,91.82
2019-01-23T18:27:53.894Z,80.20
2019-01-23T18:30:33.176Z,93.40
2019-01-23T18:33:03.967Z,89.30
2019-01-23T18:36:21.463Z,87.27
2019-01-23T18:39:15.289Z,80.50
2019-01-23T18:43:00.274Z,81.40
2019-01-23T18:46:45.183Z,72.97
2019-01-23T18:50:38.023Z,86.47
2019-01-23T18:53:07.643Z,73.83
2019-01-23T18:55:36.138Z,69.60
2019-01-23T18:58:05.045Z,75.03
2019-01-23T19:00:33.835Z,72.12
2019-01-23T19:03:06.937Z,71.42
2019-01-23T19:05:32.607Z,74.25
2019-01-23T19:08:01.067Z,72.03
2019-01-23T19:10:29.586Z,70.30
2019-01-23T19:12:58.024Z,69.50
2019-01-23T19:15:29.014Z,68.67
2019-01-23T19:17:57.656Z,70.15
2019-01-23T19:20:26.640Z,67.62
2019-01-23T19:22:55.190Z,73.05
2019-01-23T19:25:24.375Z,69.55
2019-01-23T19:27:52.860Z,75.95
2019-01-23T19:30:22.087Z,71.12
2019-01-23T19:32:50.550Z,71.80
2019-01-23T19:35:19.210Z,81.08
2019-01-23T19:37:47.871Z,69.30
2019-01-23T19:40:16.994Z,75.25
2019-01-23T19:42:45.483Z,69.67
2019-01-23T19:45:23.053Z,77.30
2019-01-23T19:47:51.709Z,67.30
2019-01-23T19:50:20.389Z,76.17
2019-01-23T19:52:48.856Z,70.62
2019-01-23T19:55:17.885Z,69.32
2019-01-23T19:57:46.246Z,67.32
2019-01-23T20:00:23.056Z,67.87
2019-01-23T20:02:51.837Z,66.72
2019-01-23T20:05:27.734Z,74.15
2019-01-23T20:07:56.098Z,65.60
2019-01-23T20:10:27.288Z,73.57
2019-01-23T20:12:55.901Z,74.87
2019-01-23T20:15:24.731Z,71.65
2019-01-23T20:18:04.398Z,79.12
2019-01-23T20:20:32.989Z,79.67
2019-01-23T20:23:01.330Z,71.57
2019-01-23T20:25:30.054Z,67.08
2019-01-23T20:27:58.840Z,65.05
2019-01-23T20:30:38.397Z,75.62
2019-01-23T20:33:06.882Z,67.05
2019-01-23T20:35:35.413Z,73.28
2019-01-23T20:38:05.374Z,67.92
2019-01-23T20:40:33.883Z,76.25
2019-01-23T20:43:02.480Z,65.20
2019-01-23T20:45:31.762Z,75.03
2019-01-23T20:48:00.437Z,69.58
2019-01-23T20:50:31.025Z,74.15
2019-01-23T20:52:59.605Z,67.17
2019-01-23T20:55:28.228Z,65.47
2019-01-23T20:57:57.246Z,67.22
2019-01-23T21:00:29.133Z,76.80
2019-01-23T21:02:57.642Z,67.22
2019-01-23T21:05:26.336Z,70.28
2019-01-23T21:07:55.310Z,68.25
2019-01-23T21:10:24.527Z,63.73
2019-01-23T21:12:53.253Z,73.47
2019-01-23T21:15:30.603Z,68.02
2019-01-23T21:17:59.848Z,64.75
2019-01-23T21:20:34.739Z,66.15
2019-01-23T21:23:03.629Z,67.82
2019-01-23T21:25:32.151Z,66.85
2019-01-23T21:28:00.801Z,67.10
2019-01-23T21:30:29.452Z,64.97
2019-01-23T21:32:58.328Z,74.58
2019-01-23T21:35:26.951Z,71.47
2019-01-23T21:37:55.396Z,68.00
2019-01-23T21:40:30.347Z,68.80
2019-01-23T21:42:59.123Z,64.35
2019-01-23T21:45:30.555Z,67.12
2019-01-23T21:47:59.761Z,74.22
2019-01-23T21:50:28.416Z,69.62
2019-01-23T21:52:56.891Z,75.42
2019-01-23T21:55:25.842Z,71.65
2019-01-23T21:57:54.856Z,66.55
2019-01-23T22:00:42.449Z,67.30
2019-01-23T22:03:12.674Z,70.97
2019-01-23T22:05:41.580Z,62.90
2019-01-23T22:08:10.181Z,69.20
2019-01-23T22:10:38.732Z,75.20
2019-01-23T22:13:07.747Z,67.92
2019-01-23T22:15:36.579Z,66.00
2019-01-23T22:18:09.483Z,67.95
2019-01-23T22:20:38.180Z,68.10
2019-01-23T22:23:06.853Z,75.37
2019-01-23T22:25:35.344Z,71.15
2019-01-23T22:28:04.439Z,67.47
2019-01-23T22:30:33.680Z,67.27
2019-01-23T22:33:02.697Z,71.60
2019-01-23T22:35:31.554Z,75.32
2019-01-23T22:38:00.038Z,71.12
2019-01-23T22:40:28.646Z,69.85
2019-01-23T22:42:57.772Z,73.90
2019-01-23T22:45:26.403Z,70.83
2019-01-23T22:47:54.848Z,77.95
2019-01-23T22:50:26.160Z,64.42
2019-01-23T22:52:54.614Z,68.65
2019-01-23T22:55:23.396Z,70.45
2019-01-23T22:57:51.921Z,75.83
2019-01-23T23:00:44.348Z,70.50
2019-01-23T23:03:17.254Z,83.50
2019-01-23T23:05:45.900Z,83.10
2019-01-23T23:08:14.438Z,74.50
2019-01-23T23:10:43.006Z,79.80
2019-01-23T23:13:11.630Z,83.07
2019-01-23T23:15:40.302Z,78.62
2019-01-23T23:18:09.167Z,88.70
2019-01-23T23:20:37.709Z,84.85
2019-01-23T23:23:06.412Z,78.33
2019-01-23T23:25:34.911Z,75.17
2019-01-23T23:28:04.328Z,84.10
2019-01-23T23:30:33.111Z,87.75
2019-01-23T23:33:02.781Z,86.60
2019-01-23T23:35:32.000Z,81.25
2019-01-23T23:38:00.814Z,88.72
2019-01-23T23:40:29.239Z,81.75
2019-01-23T23:42:57.917Z,77.40
2019-01-23T23:45:26.908Z,80.15
2019-01-23T23:47:55.627Z,78.80
2019-01-23T23:50:24.150Z,85.30
2019-01-23T23:52:52.615Z,84.35
2019-01-23T23:55:21.143Z,96.40
2019-01-23T23:57:50.784Z,84.85
